sensor_id;sensor_type;location;lat;lon;timestamp;temperature;humidity
4896;DHT22;2463;49.948;8.472;2023-04-01T00:01:14;11.00;99.90
4896;DHT22;2463;49.948;8.472;2023-04-01T00:03:43;11.00;99.90
4896;DHT22;2463;49.948;8.472;2023-04-01T00:06:15;10.90;99.90
4896;DHT22;2463;49.948;8.472;2023-04-01T00:08:44;10.90;99.90
4896;DHT22;2463;49.948;8.472;2023-04-01T00:11:11;11.00;99.90
4896;DHT22;2463;49.948;8.472;2023-04-01T00:13:38;10.90;99.90
4896;DHT22;2463;49.948;8.472;2023-04-01T00:16:05;11.00;99.90
4896;DHT22;2463;49.948;8.472;2023-04-01T00:18:45;11.00;99.90
4896;DHT22;2463;49.948;8.472;2023-04-01T00:21:13;11.00;99.90
4896;DHT22;2463;49.948;8.472;2023-04-01T00:23:41;11.00;99.90
4896;DHT22;2463;49.948;8.472;2023-04-01T00:26:08;10.90;99.90
4896;DHT22;2463;49.948;8.472;2023-04-01T00:28:35;10.90;99.90
4896;DHT22;2463;49.948;8.472;2023-04-01T00:31:06;10.90;99.90
4896;DHT22;2463;49.948;8.472;2023-04-01T00:33:33;10.90;99.90
4896;DHT22;2463;49.948;8.472;2023-04-01T00:36:14;10.90;99.90
4896;DHT22;2463;49.948;8.472;2023-04-01T00:38:42;10.80;99.90
4896;DHT22;2463;49.948;8.472;2023-04-01T00:41:10;10.90;99.90
4896;DHT22;2463;49.948;8.472;2023-04-01T00:43:43;10.80;99.90
4896;DHT22;2463;49.948;8.472;2023-04-01T00:46:10;10.80;99.90
4896;DHT22;2463;49.948;8.472;2023-04-01T00:48:39;10.80;99.90
4896;DHT22;2463;49.948;8.472;2023-04-01T00:51:16;10.90;99.90
4896;DHT22;2463;49.948;8.472;2023-04-01T00:53:46;10.80;99.90
4896;DHT22;2463;49.948;8.472;2023-04-01T00:56:16;10.80;99.90
4896;DHT22;2463;49.948;8.472;2023-04-01T00:58:47;10.80;99.90
4896;DHT22;2463;49.948;8.472;2023-04-01T01:01:15;10.90;99.90
4896;DHT22;2463;49.948;8.472;2023-04-01T01:03:42;10.90;99.90
4896;DHT22;2463;49.948;8.472;2023-04-01T01:06:17;10.90;99.90
4896;DHT22;2463;49.948;8.472;2023-04-01T01:09:18;10.80;99.90
4896;DHT22;2463;49.948;8.472;2023-04-01T01:15:09;10.90;99.90
4896;DHT22;2463;49.948;8.472;2023-04-01T01:26:21;10.90;99.90
4896;DHT22;2463;49.948;8.472;2023-04-01T01:29:11;10.90;99.90
4896;DHT22;2463;49.948;8.472;2023-04-01T01:32:03;10.90;99.90
4896;DHT22;2463;49.948;8.472;2023-04-01T01:37:17;10.80;99.90
4896;DHT22;2463;49.948;8.472;2023-04-01T01:39:53;10.90;99.90
4896;DHT22;2463;49.948;8.472;2023-04-01T01:42:23;10.80;99.90
4896;DHT22;2463;49.948;8.472;2023-04-01T01:44:52;10.80;99.90
4896;DHT22;2463;49.948;8.472;2023-04-01T01:47:21;10.80;99.90
4896;DHT22;2463;49.948;8.472;2023-04-01T01:49:49;10.90;99.90
4896;DHT22;2463;49.948;8.472;2023-04-01T01:52:17;10.80;99.90
4896;DHT22;2463;49.948;8.472;2023-04-01T01:54:54;10.90;99.90
4896;DHT22;2463;49.948;8.472;2023-04-01T01:57:26;10.90;99.90
4896;DHT22;2463;49.948;8.472;2023-04-01T01:59:58;10.90;99.90
4896;DHT22;2463;49.948;8.472;2023-04-01T02:02:27;10.90;99.90
4896;DHT22;2463;49.948;8.472;2023-04-01T02:04:57;10.90;99.90
4896;DHT22;2463;49.948;8.472;2023-04-01T02:07:30;10.90;99.90
4896;DHT22;2463;49.948;8.472;2023-04-01T02:09:57;10.90;99.90
4896;DHT22;2463;49.948;8.472;2023-04-01T02:12:24;10.90;99.90
4896;DHT22;2463;49.948;8.472;2023-04-01T02:15:08;10.80;99.90
4896;DHT22;2463;49.948;8.472;2023-04-01T02:17:39;10.90;99.90
4896;DHT22;2463;49.948;8.472;2023-04-01T02:20:09;10.80;99.90
4896;DHT22;2463;49.948;8.472;2023-04-01T02:22:40;10.80;99.90
4896;DHT22;2463;49.948;8.472;2023-04-01T02:25:13;10.90;99.90
4896;DHT22;2463;49.948;8.472;2023-04-01T02:27:42;10.80;99.90
4896;DHT22;2463;49.948;8.472;2023-04-01T02:30:11;10.80;99.90
4896;DHT22;2463;49.948;8.472;2023-04-01T02:32:38;10.70;99.90
4896;DHT22;2463;49.948;8.472;2023-04-01T02:35:16;10.70;99.90
4896;DHT22;2463;49.948;8.472;2023-04-01T02:37:46;10.60;99.90
4896;DHT22;2463;49.948;8.472;2023-04-01T02:40:15;10.70;99.90
4896;DHT22;2463;49.948;8.472;2023-04-01T02:42:42;10.60;99.90
4896;DHT22;2463;49.948;8.472;2023-04-01T02:45:10;10.70;99.90
4896;DHT22;2463;49.948;8.472;2023-04-01T02:47:36;10.70;99.90
4896;DHT22;2463;49.948;8.472;2023-04-01T02:50:04;10.60;99.90
4896;DHT22;2463;49.948;8.472;2023-04-01T02:52:31;10.60;99.90
4896;DHT22;2463;49.948;8.472;2023-04-01T02:54:58;10.50;99.90
4896;DHT22;2463;49.948;8.472;2023-04-01T02:57:25;10.50;99.90
4896;DHT22;2463;49.948;8.472;2023-04-01T02:59:52;10.50;99.90
4896;DHT22;2463;49.948;8.472;2023-04-01T03:02:18;10.40;99.90
4896;DHT22;2463;49.948;8.472;2023-04-01T03:04:45;10.40;99.90
4896;DHT22;2463;49.948;8.472;2023-04-01T03:07:12;10.40;99.90
4896;DHT22;2463;49.948;8.472;2023-04-01T03:09:39;10.30;99.90
4896;DHT22;2463;49.948;8.472;2023-04-01T03:12:06;10.40;99.90
4896;DHT22;2463;49.948;8.472;2023-04-01T03:14:33;10.30;99.90
4896;DHT22;2463;49.948;8.472;2023-04-01T03:16:59;10.40;99.90
4896;DHT22;2463;49.948;8.472;2023-04-01T03:19:26;10.30;99.90
4896;DHT22;2463;49.948;8.472;2023-04-01T03:21:53;10.30;99.90
4896;DHT22;2463;49.948;8.472;2023-04-01T03:24:20;10.40;99.90
4896;DHT22;2463;49.948;8.472;2023-04-01T03:26:46;10.40;99.90
4896;DHT22;2463;49.948;8.472;2023-04-01T03:29:13;10.40;99.90
4896;DHT22;2463;49.948;8.472;2023-04-01T03:31:42;10.40;99.90
4896;DHT22;2463;49.948;8.472;2023-04-01T03:34:08;10.40;99.90
4896;DHT22;2463;49.948;8.472;2023-04-01T03:36:35;10.40;99.90
4896;DHT22;2463;49.948;8.472;2023-04-01T03:39:02;10.40;99.90
4896;DHT22;2463;49.948;8.472;2023-04-01T03:41:30;10.50;99.90
4896;DHT22;2463;49.948;8.472;2023-04-01T03:43:57;10.50;99.90
4896;DHT22;2463;49.948;8.472;2023-04-01T03:46:23;10.50;99.90
4896;DHT22;2463;49.948;8.472;2023-04-01T03:48:50;10.50;99.90
4896;DHT22;2463;49.948;8.472;2023-04-01T03:51:17;10.50;99.90
4896;DHT22;2463;49.948;8.472;2023-04-01T03:53:44;10.50;99.90
4896;DHT22;2463;49.948;8.472;2023-04-01T03:56:11;10.50;99.90
4896;DHT22;2463;49.948;8.472;2023-04-01T03:58:38;10.50;99.90
4896;DHT22;2463;49.948;8.472;2023-04-01T04:01:20;10.50;99.90
4896;DHT22;2463;49.948;8.472;2023-04-01T04:03:47;10.50;99.90
4896;DHT22;2463;49.948;8.472;2023-04-01T04:06:17;10.60;99.90
4896;DHT22;2463;49.948;8.472;2023-04-01T04:08:44;10.60;99.90
4896;DHT22;2463;49.948;8.472;2023-04-01T04:11:11;10.60;99.90
4896;DHT22;2463;49.948;8.472;2023-04-01T04:13:38;10.60;99.90
4896;DHT22;2463;49.948;8.472;2023-04-01T04:16:05;10.60;99.90
4896;DHT22;2463;49.948;8.472;2023-04-01T04:18:33;10.60;99.90
4896;DHT22;2463;49.948;8.472;2023-04-01T04:20:59;10.60;99.90
4896;DHT22;2463;49.948;8.472;2023-04-01T04:23:26;10.60;99.90
4896;DHT22;2463;49.948;8.472;2023-04-01T04:25:57;10.60;99.90
4896;DHT22;2463;49.948;8.472;2023-04-01T04:28:25;10.60;99.90
4896;DHT22;2463;49.948;8.472;2023-04-01T04:30:53;10.60;99.90
4896;DHT22;2463;49.948;8.472;2023-04-01T04:33:21;10.60;99.90
4896;DHT22;2463;49.948;8.472;2023-04-01T04:35:48;10.70;99.90
4896;DHT22;2463;49.948;8.472;2023-04-01T04:38:15;10.70;99.90
4896;DHT22;2463;49.948;8.472;2023-04-01T04:40:43;10.70;99.90
4896;DHT22;2463;49.948;8.472;2023-04-01T04:43:12;10.70;99.90
4896;DHT22;2463;49.948;8.472;2023-04-01T04:45:39;10.70;99.90
4896;DHT22;2463;49.948;8.472;2023-04-01T04:48:10;10.70;99.90
4896;DHT22;2463;49.948;8.472;2023-04-01T04:50:37;10.70;99.90
4896;DHT22;2463;49.948;8.472;2023-04-01T04:53:03;10.70;99.90
4896;DHT22;2463;49.948;8.472;2023-04-01T04:55:30;10.70;99.90
4896;DHT22;2463;49.948;8.472;2023-04-01T04:57:57;10.70;99.90
4896;DHT22;2463;49.948;8.472;2023-04-01T05:00:24;10.70;99.90
4896;DHT22;2463;49.948;8.472;2023-04-01T05:02:51;10.70;99.90
4896;DHT22;2463;49.948;8.472;2023-04-01T05:05:18;10.70;99.90
4896;DHT22;2463;49.948;8.472;2023-04-01T05:07:45;10.70;99.90
4896;DHT22;2463;49.948;8.472;2023-04-01T05:10:11;10.70;99.90
4896;DHT22;2463;49.948;8.472;2023-04-01T05:12:38;10.70;99.90
4896;DHT22;2463;49.948;8.472;2023-04-01T05:15:06;10.70;99.90
4896;DHT22;2463;49.948;8.472;2023-04-01T05:17:32;10.70;99.90
4896;DHT22;2463;49.948;8.472;2023-04-01T05:19:59;10.60;99.90
4896;DHT22;2463;49.948;8.472;2023-04-01T05:22:26;10.60;99.90
4896;DHT22;2463;49.948;8.472;2023-04-01T05:24:53;10.60;99.90
4896;DHT22;2463;49.948;8.472;2023-04-01T05:27:20;10.60;99.90
4896;DHT22;2463;49.948;8.472;2023-04-01T05:29:46;10.70;99.90
4896;DHT22;2463;49.948;8.472;2023-04-01T05:32:13;10.70;99.90
4896;DHT22;2463;49.948;8.472;2023-04-01T05:34:40;10.60;99.90
4896;DHT22;2463;49.948;8.472;2023-04-01T05:37:07;10.70;99.90
4896;DHT22;2463;49.948;8.472;2023-04-01T05:39:40;10.60;99.90
4896;DHT22;2463;49.948;8.472;2023-04-01T05:42:06;10.60;99.90
4896;DHT22;2463;49.948;8.472;2023-04-01T05:44:35;10.50;99.90
4896;DHT22;2463;49.948;8.472;2023-04-01T05:47:03;10.50;99.90
4896;DHT22;2463;49.948;8.472;2023-04-01T05:49:29;10.50;99.90
4896;DHT22;2463;49.948;8.472;2023-04-01T05:51:56;10.50;99.90
4896;DHT22;2463;49.948;8.472;2023-04-01T05:54:23;10.50;99.90
4896;DHT22;2463;49.948;8.472;2023-04-01T05:56:50;10.50;99.90
4896;DHT22;2463;49.948;8.472;2023-04-01T05:59:17;10.50;99.90
4896;DHT22;2463;49.948;8.472;2023-04-01T06:01:43;10.50;99.90
4896;DHT22;2463;49.948;8.472;2023-04-01T06:04:13;10.50;99.90
4896;DHT22;2463;49.948;8.472;2023-04-01T06:06:42;10.60;99.90
4896;DHT22;2463;49.948;8.472;2023-04-01T06:09:34;10.60;99.90
4896;DHT22;2463;49.948;8.472;2023-04-01T06:31:25;10.70;99.90
4896;DHT22;2463;49.948;8.472;2023-04-01T06:39:21;10.80;99.90
4896;DHT22;2463;49.948;8.472;2023-04-01T06:47:30;10.80;99.90
4896;DHT22;2463;49.948;8.472;2023-04-01T06:50:18;10.80;99.90
4896;DHT22;2463;49.948;8.472;2023-04-01T06:58:09;10.80;99.90
4896;DHT22;2463;49.948;8.472;2023-04-01T07:00:39;10.90;99.90
4896;DHT22;2463;49.948;8.472;2023-04-01T07:06:22;10.90;99.90
4896;DHT22;2463;49.948;8.472;2023-04-01T07:08:51;11.00;99.90
4896;DHT22;2463;49.948;8.472;2023-04-01T07:11:27;11.00;99.90
4896;DHT22;2463;49.948;8.472;2023-04-01T07:17:24;11.00;99.90
4896;DHT22;2463;49.948;8.472;2023-04-01T07:22:45;11.20;99.90
4896;DHT22;2463;49.948;8.472;2023-04-01T07:25:20;11.20;99.90
4896;DHT22;2463;49.948;8.472;2023-04-01T07:27:47;11.30;99.90
4896;DHT22;2463;49.948;8.472;2023-04-01T07:30:16;11.40;99.90
4896;DHT22;2463;49.948;8.472;2023-04-01T07:35:39;11.50;99.90
4896;DHT22;2463;49.948;8.472;2023-04-01T07:38:32;11.60;99.90
4896;DHT22;2463;49.948;8.472;2023-04-01T07:41:23;11.60;99.90
4896;DHT22;2463;49.948;8.472;2023-04-01T07:47:08;11.70;99.90
4896;DHT22;2463;49.948;8.472;2023-04-01T07:52:36;11.70;99.90
4896;DHT22;2463;49.948;8.472;2023-04-01T07:55:20;11.80;99.90
4896;DHT22;2463;49.948;8.472;2023-04-01T07:58:31;11.80;99.90
4896;DHT22;2463;49.948;8.472;2023-04-01T08:01:14;11.80;99.90
4896;DHT22;2463;49.948;8.472;2023-04-01T08:03:54;12.00;99.90
4896;DHT22;2463;49.948;8.472;2023-04-01T08:06:36;12.00;99.90
4896;DHT22;2463;49.948;8.472;2023-04-01T08:09:22;11.90;99.90
4896;DHT22;2463;49.948;8.472;2023-04-01T08:17:43;12.00;99.90
4896;DHT22;2463;49.948;8.472;2023-04-01T08:20:36;12.00;99.90
4896;DHT22;2463;49.948;8.472;2023-04-01T08:23:15;12.00;99.90
4896;DHT22;2463;49.948;8.472;2023-04-01T08:26:02;12.00;99.90
4896;DHT22;2463;49.948;8.472;2023-04-01T08:28:35;12.00;99.90
4896;DHT22;2463;49.948;8.472;2023-04-01T08:31:14;12.00;99.90
4896;DHT22;2463;49.948;8.472;2023-04-01T08:33:44;11.90;99.90
4896;DHT22;2463;49.948;8.472;2023-04-01T08:36:26;11.90;99.90
4896;DHT22;2463;49.948;8.472;2023-04-01T08:38:58;11.80;99.90
4896;DHT22;2463;49.948;8.472;2023-04-01T08:44:34;11.80;99.90
4896;DHT22;2463;49.948;8.472;2023-04-01T08:52:52;11.90;99.90
4896;DHT22;2463;49.948;8.472;2023-04-01T08:55:40;11.90;99.90
4896;DHT22;2463;49.948;8.472;2023-04-01T09:01:26;12.20;99.90
4896;DHT22;2463;49.948;8.472;2023-04-01T09:06:52;12.30;99.90
4896;DHT22;2463;49.948;8.472;2023-04-01T09:15:11;12.40;99.90
4896;DHT22;2463;49.948;8.472;2023-04-01T09:21:16;12.40;99.90
4896;DHT22;2463;49.948;8.472;2023-04-01T09:24:03;12.40;99.90
4896;DHT22;2463;49.948;8.472;2023-04-01T09:27:14;12.40;99.90
4896;DHT22;2463;49.948;8.472;2023-04-01T09:30:01;12.50;99.90
4896;DHT22;2463;49.948;8.472;2023-04-01T09:41:36;12.40;99.90
4896;DHT22;2463;49.948;8.472;2023-04-01T09:44:25;12.40;99.90
4896;DHT22;2463;49.948;8.472;2023-04-01T09:47:04;12.30;99.90
4896;DHT22;2463;49.948;8.472;2023-04-01T09:52:13;12.30;99.90
4896;DHT22;2463;49.948;8.472;2023-04-01T09:55:18;12.40;99.90
4896;DHT22;2463;49.948;8.472;2023-04-01T10:20:55;13.10;99.90
4896;DHT22;2463;49.948;8.472;2023-04-01T10:23:30;13.00;99.90
4896;DHT22;2463;49.948;8.472;2023-04-01T10:26:19;12.90;99.90
4896;DHT22;2463;49.948;8.472;2023-04-01T10:46:30;12.80;99.90
4896;DHT22;2463;49.948;8.472;2023-04-01T10:49:10;12.90;99.90
4896;DHT22;2463;49.948;8.472;2023-04-01T10:52:03;13.00;99.90
4896;DHT22;2463;49.948;8.472;2023-04-01T10:54:47;13.00;99.90
4896;DHT22;2463;49.948;8.472;2023-04-01T10:57:34;13.00;99.90
4896;DHT22;2463;49.948;8.472;2023-04-01T11:00:24;13.10;99.90
4896;DHT22;2463;49.948;8.472;2023-04-01T11:17:35;13.60;99.90
4896;DHT22;2463;49.948;8.472;2023-04-01T11:26:02;13.40;99.90
4896;DHT22;2463;49.948;8.472;2023-04-01T11:28:59;13.40;99.90
4896;DHT22;2463;49.948;8.472;2023-04-01T11:31:50;13.30;99.90
4896;DHT22;2463;49.948;8.472;2023-04-01T11:40:26;13.20;99.90
4896;DHT22;2463;49.948;8.472;2023-04-01T11:43:53;13.20;99.90
4896;DHT22;2463;49.948;8.472;2023-04-01T11:46:10;13.10;99.90
4896;DHT22;2463;49.948;8.472;2023-04-01T11:49:00;13.20;99.90
4896;DHT22;2463;49.948;8.472;2023-04-01T11:57:11;13.00;99.90
4896;DHT22;2463;49.948;8.472;2023-04-01T11:59:52;13.10;99.90
4896;DHT22;2463;49.948;8.472;2023-04-01T12:05:51;13.00;99.90
4896;DHT22;2463;49.948;8.472;2023-04-01T12:08:43;13.00;99.90
4896;DHT22;2463;49.948;8.472;2023-04-01T12:14:27;13.00;99.90
4896;DHT22;2463;49.948;8.472;2023-04-01T12:17:20;12.90;99.90
4896;DHT22;2463;49.948;8.472;2023-04-01T12:19:53;12.90;99.90
4896;DHT22;2463;49.948;8.472;2023-04-01T12:22:39;12.90;99.90
4896;DHT22;2463;49.948;8.472;2023-04-01T12:25:31;12.90;99.90
4896;DHT22;2463;49.948;8.472;2023-04-01T12:33:42;13.00;99.90
4896;DHT22;2463;49.948;8.472;2023-04-01T12:47:34;13.30;99.90
4896;DHT22;2463;49.948;8.472;2023-04-01T12:56:16;13.30;99.90
4896;DHT22;2463;49.948;8.472;2023-04-01T13:04:54;12.70;99.90
4896;DHT22;2463;49.948;8.472;2023-04-01T13:17:45;12.40;99.90
4896;DHT22;2463;49.948;8.472;2023-04-01T13:20:15;12.50;99.90
4896;DHT22;2463;49.948;8.472;2023-04-01T13:25:58;12.80;99.90
4896;DHT22;2463;49.948;8.472;2023-04-01T13:31:38;13.00;99.90
4896;DHT22;2463;49.948;8.472;2023-04-01T13:37:24;13.20;99.90
4896;DHT22;2463;49.948;8.472;2023-04-01T13:40:23;13.30;99.90
4896;DHT22;2463;49.948;8.472;2023-04-01T13:43:16;13.30;99.90
4896;DHT22;2463;49.948;8.472;2023-04-01T13:46:08;13.30;99.90
4896;DHT22;2463;49.948;8.472;2023-04-01T13:52:22;13.30;99.90
4896;DHT22;2463;49.948;8.472;2023-04-01T14:03:08;13.60;99.90
4896;DHT22;2463;49.948;8.472;2023-04-01T14:06:00;13.50;99.90
4896;DHT22;2463;49.948;8.472;2023-04-01T14:08:42;13.50;99.90
4896;DHT22;2463;49.948;8.472;2023-04-01T14:19:33;13.80;99.90
4896;DHT22;2463;49.948;8.472;2023-04-01T14:22:19;13.90;99.90
4896;DHT22;2463;49.948;8.472;2023-04-01T14:30:54;13.80;99.90
4896;DHT22;2463;49.948;8.472;2023-04-01T14:33:31;13.80;99.90
4896;DHT22;2463;49.948;8.472;2023-04-01T14:38:59;13.70;99.90
4896;DHT22;2463;49.948;8.472;2023-04-01T14:41:48;13.70;99.90
4896;DHT22;2463;49.948;8.472;2023-04-01T14:44:37;13.60;99.90
4896;DHT22;2463;49.948;8.472;2023-04-01T14:50:28;13.50;99.90
4896;DHT22;2463;49.948;8.472;2023-04-01T14:53:11;13.60;99.90
4896;DHT22;2463;49.948;8.472;2023-04-01T14:58:11;13.60;99.90
4896;DHT22;2463;49.948;8.472;2023-04-01T15:03:39;13.50;99.90
4896;DHT22;2463;49.948;8.472;2023-04-01T15:08:57;13.50;99.90
4896;DHT22;2463;49.948;8.472;2023-04-01T15:15:23;13.40;99.90
4896;DHT22;2463;49.948;8.472;2023-04-01T15:20:56;13.40;99.90
4896;DHT22;2463;49.948;8.472;2023-04-01T15:23:47;13.40;99.90
4896;DHT22;2463;49.948;8.472;2023-04-01T15:26:36;13.40;99.90
4896;DHT22;2463;49.948;8.472;2023-04-01T15:31:50;13.50;99.90
4896;DHT22;2463;49.948;8.472;2023-04-01T15:42:35;13.80;99.90
4896;DHT22;2463;49.948;8.472;2023-04-01T15:53:35;13.40;99.90
4896;DHT22;2463;49.948;8.472;2023-04-01T15:59:15;13.50;99.90
4896;DHT22;2463;49.948;8.472;2023-04-01T16:01:59;13.60;99.90
4896;DHT22;2463;49.948;8.472;2023-04-01T16:13:42;13.20;99.90
4896;DHT22;2463;49.948;8.472;2023-04-01T16:19:13;12.90;99.90
4896;DHT22;2463;49.948;8.472;2023-04-01T16:22:00;12.80;99.90
4896;DHT22;2463;49.948;8.472;2023-04-01T16:31:15;12.80;99.90
4896;DHT22;2463;49.948;8.472;2023-04-01T16:33:55;12.90;99.90
4896;DHT22;2463;49.948;8.472;2023-04-01T16:36:28;12.90;99.90
4896;DHT22;2463;49.948;8.472;2023-04-01T16:41:38;12.90;99.90
4896;DHT22;2463;49.948;8.472;2023-04-01T16:44:20;12.80;99.90
4896;DHT22;2463;49.948;8.472;2023-04-01T16:46:53;12.80;99.90
4896;DHT22;2463;49.948;8.472;2023-04-01T16:49:32;12.80;99.90
4896;DHT22;2463;49.948;8.472;2023-04-01T16:57:28;12.80;99.90
4896;DHT22;2463;49.948;8.472;2023-04-01T17:00:24;12.80;99.90
4896;DHT22;2463;49.948;8.472;2023-04-01T17:02:58;12.70;99.90
4896;DHT22;2463;49.948;8.472;2023-04-01T17:05:40;12.70;99.90
4896;DHT22;2463;49.948;8.472;2023-04-01T17:08:28;12.60;99.90
4896;DHT22;2463;49.948;8.472;2023-04-01T17:11:16;12.60;99.90
4896;DHT22;2463;49.948;8.472;2023-04-01T17:13:52;12.50;99.90
4896;DHT22;2463;49.948;8.472;2023-04-01T17:22:07;12.40;99.90
4896;DHT22;2463;49.948;8.472;2023-04-01T17:25:08;12.40;99.90
4896;DHT22;2463;49.948;8.472;2023-04-01T17:35:35;12.30;99.90
4896;DHT22;2463;49.948;8.472;2023-04-01T17:41:36;12.30;99.90
4896;DHT22;2463;49.948;8.472;2023-04-01T17:44:10;12.30;99.90
4896;DHT22;2463;49.948;8.472;2023-04-01T17:47:09;12.30;99.90
4896;DHT22;2463;49.948;8.472;2023-04-01T17:49:39;12.30;99.90
4896;DHT22;2463;49.948;8.472;2023-04-01T17:52:29;12.30;99.90
4896;DHT22;2463;49.948;8.472;2023-04-01T17:55:16;12.30;99.90
4896;DHT22;2463;49.948;8.472;2023-04-01T17:58:17;12.30;99.90
4896;DHT22;2463;49.948;8.472;2023-04-01T18:12:58;12.20;99.90
4896;DHT22;2463;49.948;8.472;2023-04-01T18:16:02;12.20;99.90
4896;DHT22;2463;49.948;8.472;2023-04-01T18:18:58;12.10;99.90
4896;DHT22;2463;49.948;8.472;2023-04-01T18:24:20;12.00;99.90
4896;DHT22;2463;49.948;8.472;2023-04-01T18:27:15;12.00;99.90
4896;DHT22;2463;49.948;8.472;2023-04-01T18:30:03;12.00;99.90
4896;DHT22;2463;49.948;8.472;2023-04-01T18:32:44;11.90;99.90
4896;DHT22;2463;49.948;8.472;2023-04-01T18:38:00;11.80;99.90
4896;DHT22;2463;49.948;8.472;2023-04-01T18:43:30;11.80;99.90
4896;DHT22;2463;49.948;8.472;2023-04-01T18:51:48;11.70;99.90
4896;DHT22;2463;49.948;8.472;2023-04-01T18:56:50;11.70;99.90
4896;DHT22;2463;49.948;8.472;2023-04-01T18:59:32;11.70;99.90
4896;DHT22;2463;49.948;8.472;2023-04-01T19:02:38;11.70;99.90
4896;DHT22;2463;49.948;8.472;2023-04-01T19:05:18;11.60;99.90
4896;DHT22;2463;49.948;8.472;2023-04-01T19:07:50;11.60;99.90
4896;DHT22;2463;49.948;8.472;2023-04-01T19:13:18;11.60;99.90
4896;DHT22;2463;49.948;8.472;2023-04-01T19:26:53;11.40;99.90
4896;DHT22;2463;49.948;8.472;2023-04-01T19:40:58;11.20;99.90
4896;DHT22;2463;49.948;8.472;2023-04-01T19:50:24;11.10;99.90
4896;DHT22;2463;49.948;8.472;2023-04-01T19:52:57;11.10;99.90
4896;DHT22;2463;49.948;8.472;2023-04-01T19:55:39;11.10;99.90
4896;DHT22;2463;49.948;8.472;2023-04-01T20:00:58;11.10;99.90
4896;DHT22;2463;49.948;8.472;2023-04-01T20:03:38;11.10;99.90
4896;DHT22;2463;49.948;8.472;2023-04-01T20:08:49;11.10;99.90
4896;DHT22;2463;49.948;8.472;2023-04-01T20:14:43;11.10;99.90
4896;DHT22;2463;49.948;8.472;2023-04-01T20:25:22;11.10;99.90
4896;DHT22;2463;49.948;8.472;2023-04-01T20:27:51;11.10;99.90
4896;DHT22;2463;49.948;8.472;2023-04-01T20:30:51;11.10;99.90
4896;DHT22;2463;49.948;8.472;2023-04-01T20:33:42;11.10;99.90
4896;DHT22;2463;49.948;8.472;2023-04-01T20:36:49;11.00;99.90
4896;DHT22;2463;49.948;8.472;2023-04-01T20:39:34;11.10;99.90
4896;DHT22;2463;49.948;8.472;2023-04-01T20:42:40;11.00;99.90
4896;DHT22;2463;49.948;8.472;2023-04-01T20:53:16;10.90;99.90
4896;DHT22;2463;49.948;8.472;2023-04-01T21:03:51;10.80;99.90
4896;DHT22;2463;49.948;8.472;2023-04-01T21:17:44;10.90;99.90
4896;DHT22;2463;49.948;8.472;2023-04-01T21:20:38;10.90;99.90
4896;DHT22;2463;49.948;8.472;2023-04-01T21:26:23;11.00;99.90
4896;DHT22;2463;49.948;8.472;2023-04-01T21:31:58;11.00;99.90
4896;DHT22;2463;49.948;8.472;2023-04-01T21:34:58;11.00;99.90
4896;DHT22;2463;49.948;8.472;2023-04-01T21:40:48;11.00;99.90
4896;DHT22;2463;49.948;8.472;2023-04-01T21:52:44;11.00;99.90
4896;DHT22;2463;49.948;8.472;2023-04-01T22:03:53;10.90;99.90
4896;DHT22;2463;49.948;8.472;2023-04-01T22:09:25;10.90;99.90
4896;DHT22;2463;49.948;8.472;2023-04-01T22:12:15;11.00;99.90
4896;DHT22;2463;49.948;8.472;2023-04-01T22:15:40;11.00;99.90
4896;DHT22;2463;49.948;8.472;2023-04-01T22:20:36;11.00;99.90
4896;DHT22;2463;49.948;8.472;2023-04-01T22:32:07;11.10;99.90
4896;DHT22;2463;49.948;8.472;2023-04-01T22:34:42;11.10;99.90
4896;DHT22;2463;49.948;8.472;2023-04-01T22:37:25;11.00;99.90
4896;DHT22;2463;49.948;8.472;2023-04-01T22:43:10;11.00;99.90
4896;DHT22;2463;49.948;8.472;2023-04-01T22:46:01;11.10;99.90
4896;DHT22;2463;49.948;8.472;2023-04-01T22:48:49;11.00;99.90
4896;DHT22;2463;49.948;8.472;2023-04-01T22:51:40;11.00;99.90
4896;DHT22;2463;49.948;8.472;2023-04-01T22:54:19;11.00;99.90
4896;DHT22;2463;49.948;8.472;2023-04-01T22:57:03;11.00;99.90
4896;DHT22;2463;49.948;8.472;2023-04-01T22:59:52;10.90;99.90
4896;DHT22;2463;49.948;8.472;2023-04-01T23:02:28;10.90;99.90
4896;DHT22;2463;49.948;8.472;2023-04-01T23:04:58;10.80;99.90
4896;DHT22;2463;49.948;8.472;2023-04-01T23:07:33;10.90;99.90
4896;DHT22;2463;49.948;8.472;2023-04-01T23:10:06;10.90;99.90
4896;DHT22;2463;49.948;8.472;2023-04-01T23:12:39;10.90;99.90
4896;DHT22;2463;49.948;8.472;2023-04-01T23:15:13;11.00;99.90
4896;DHT22;2463;49.948;8.472;2023-04-01T23:20:49;11.10;99.90
4896;DHT22;2463;49.948;8.472;2023-04-01T23:23:32;11.10;99.90
4896;DHT22;2463;49.948;8.472;2023-04-01T23:26:09;11.10;99.90
4896;DHT22;2463;49.948;8.472;2023-04-01T23:28:54;11.10;99.90
4896;DHT22;2463;49.948;8.472;2023-04-01T23:31:31;11.10;99.90
4896;DHT22;2463;49.948;8.472;2023-04-01T23:34:01;11.10;99.90
4896;DHT22;2463;49.948;8.472;2023-04-01T23:36:30;11.10;99.90
4896;DHT22;2463;49.948;8.472;2023-04-01T23:39:01;11.10;99.90
4896;DHT22;2463;49.948;8.472;2023-04-01T23:41:30;11.10;99.90
4896;DHT22;2463;49.948;8.472;2023-04-01T23:44:05;11.10;99.90
4896;DHT22;2463;49.948;8.472;2023-04-01T23:46:35;11.10;99.90
4896;DHT22;2463;49.948;8.472;2023-04-01T23:49:03;11.10;99.90
4896;DHT22;2463;49.948;8.472;2023-04-01T23:51:38;11.10;99.90
4896;DHT22;2463;49.948;8.472;2023-04-01T23:54:30;11.00;99.90
4896;DHT22;2463;49.948;8.472;2023-04-01T23:56:58;11.00;99.90
4896;DHT22;2463;49.948;8.472;2023-04-01T23:59:35;11.00;99.90
